Terminal Aerodrome Forecast
Issued by NWS Wilmington, NC

Home | Current Version | Previous Version | Text Only | Print | Product List | Glossary On
Versions: 1 2 3 4 5 6 7 8 9 10 11 12 13 14 15 16 17
801
FTUS42 KILM 230829 CCA
TAFILM
TAF COR
KILM 230829Z 2308/2406 00000KT P6SM BKN060
      TEMPO 2310/2312 4SM BR SCT003
     FM231500 14011G21KT P6SM BKN035
     FM232100 17013G23KT P6SM VCSH BKN030
      TEMPO 2402/2406 5SM -SHRA OVC025=

USA.gov is the U.S. government's official web portal to all federal, state and local government web resources and services.